createdAt,value
2022-09-09T00:01:38.804Z,100064.72
2022-09-09T00:04:22.096Z,100058.64
2022-09-09T00:07:04.748Z,100055.17
2022-09-09T00:09:50.399Z,100054.42
2022-09-09T00:12:32.991Z,100048.36
2022-09-09T00:15:14.427Z,100049.95
2022-09-09T00:17:55.822Z,100050.11
2022-09-09T00:20:37.176Z,100052.52
2022-09-09T00:23:21.233Z,100050.86
2022-09-09T00:26:05.203Z,100052.13
2022-09-09T00:28:46.561Z,100052.24
2022-09-09T00:31:23.565Z,100051.36
2022-09-09T00:34:02.371Z,100054.80
2022-09-09T00:36:35.808Z,100055.52
2022-09-09T00:39:12.929Z,100054.75
2022-09-09T00:42:01.413Z,100055.67
2022-09-09T00:44:37.095Z,100057.87
2022-09-09T00:47:28.518Z,100058.96
2022-09-09T00:50:12.025Z,100059.23
2022-09-09T00:52:55.236Z,100055.57
2022-09-09T00:55:37.126Z,100058.36
2022-09-09T00:58:11.377Z,100060.58
2022-09-09T01:00:50.533Z,100061.02
2022-09-09T01:03:32.179Z,100061.50
2022-09-09T01:06:23.745Z,100059.86
2022-09-09T01:09:18.997Z,100056.84
2022-09-09T01:12:00.602Z,100050.45
2022-09-09T01:14:45.850Z,100052.91
2022-09-09T01:17:24.678Z,100053.51
2022-09-09T01:20:11.364Z,100046.85
2022-09-09T01:23:03.357Z,100041.77
2022-09-09T01:26:12.454Z,100043.85
2022-09-09T01:28:48.665Z,100034.77
2022-09-09T01:31:26.946Z,100038.36
2022-09-09T01:34:00.110Z,100036.84
2022-09-09T01:36:43.598Z,100038.98
2022-09-09T01:39:17.073Z,100038.27
2022-09-09T01:41:51.555Z,100033.17
2022-09-09T01:44:27.194Z,100040.67
2022-09-09T01:47:00.523Z,100042.75
2022-09-09T01:49:34.306Z,100044.45
2022-09-09T01:52:13.638Z,100046.16
2022-09-09T01:54:46.772Z,100044.95
2022-09-09T01:57:30.669Z,100044.14
2022-09-09T02:00:10.860Z,100041.13
2022-09-09T02:02:57.998Z,100038.73
2022-09-09T02:05:42.012Z,100041.31
2022-09-09T02:08:32.180Z,100037.96
2022-09-09T02:11:13.836Z,100039.11
2022-09-09T02:13:57.633Z,100036.43
2022-09-09T02:16:35.592Z,100032.88
2022-09-09T02:19:14.714Z,100028.84
2022-09-09T02:22:11.905Z,100027.96
2022-09-09T02:24:47.513Z,100026.71
2022-09-09T02:27:26.283Z,100027.30
2022-09-09T02:30:03.494Z,100027.91
2022-09-09T02:32:44.931Z,100028.23
2022-09-09T02:35:22.826Z,100030.53
2022-09-09T02:38:00.549Z,100034.75
2022-09-09T02:40:33.984Z,100044.52
2022-09-09T02:43:19.901Z,100043.97
2022-09-09T02:46:03.699Z,100045.40
2022-09-09T02:48:47.502Z,100045.89
2022-09-09T02:51:27.087Z,100045.38
2022-09-09T02:54:11.963Z,100044.30
2022-09-09T02:56:51.317Z,100043.48
2022-09-09T02:59:27.698Z,100041.55
2022-09-09T03:02:01.581Z,100040.09
2022-09-09T03:04:35.853Z,100038.30
2022-09-09T03:07:08.988Z,100038.84
2022-09-09T03:09:43.384Z,100037.42
2022-09-09T03:12:17.636Z,100040.36
2022-09-09T03:14:51.153Z,100038.40
2022-09-09T03:17:25.023Z,100036.65
2022-09-09T03:20:00.313Z,100037.31
2022-09-09T03:22:33.826Z,100035.99
2022-09-09T03:25:10.636Z,100039.00
2022-09-09T03:27:43.774Z,100036.11
2022-09-09T03:30:18.368Z,100030.76
2022-09-09T03:32:52.053Z,100030.64
2022-09-09T03:35:25.379Z,100035.50
2022-09-09T03:37:58.964Z,100033.80
2022-09-09T03:40:32.305Z,100033.64
2022-09-09T03:43:05.399Z,100030.36
2022-09-09T03:45:38.530Z,100033.54
2022-09-09T03:48:13.277Z,100040.48
2022-09-09T03:50:50.409Z,100046.51
2022-09-09T03:53:25.933Z,100045.40
2022-09-09T03:56:01.986Z,100043.98
2022-09-09T03:58:37.256Z,100044.09
2022-09-09T04:01:16.078Z,100046.73
2022-09-09T04:03:49.953Z,100042.23
2022-09-09T04:06:23.459Z,100040.83
2022-09-09T04:08:56.796Z,100037.91
2022-09-09T04:11:30.280Z,100039.93
2022-09-09T04:14:05.503Z,100043.58
2022-09-09T04:16:39.272Z,100039.98
2022-09-09T04:19:13.730Z,100042.12
2022-09-09T04:21:47.805Z,100040.00
2022-09-09T04:24:21.488Z,100042.66
2022-09-09T04:26:54.774Z,100044.02
2022-09-09T04:29:27.968Z,100043.54
2022-09-09T04:32:00.932Z,100042.18
2022-09-09T04:34:34.165Z,100044.09
2022-09-09T04:37:07.758Z,100044.70
2022-09-09T04:39:41.006Z,100044.09
2022-09-09T04:42:14.265Z,100039.94
2022-09-09T04:44:49.053Z,100046.27
2022-09-09T04:47:22.780Z,100046.06
2022-09-09T04:49:56.267Z,100049.36
2022-09-09T04:52:29.424Z,100048.51
2022-09-09T04:55:03.123Z,100055.96
2022-09-09T04:57:37.001Z,100058.59
2022-09-09T05:00:14.138Z,100060.94
2022-09-09T05:02:48.900Z,100059.11
2022-09-09T05:05:22.478Z,100059.84
2022-09-09T05:07:56.399Z,100062.79
2022-09-09T05:10:32.344Z,100061.09
2022-09-09T05:13:06.044Z,100064.61
2022-09-09T05:15:40.016Z,100067.02
2022-09-09T05:18:13.810Z,100065.64
2022-09-09T05:20:46.881Z,100064.13
2022-09-09T05:23:20.151Z,100066.74
2022-09-09T05:26:00.638Z,100067.72
2022-09-09T05:28:36.685Z,100063.89
2022-09-09T05:31:12.671Z,100068.15
2022-09-09T05:33:48.149Z,100067.39
2022-09-09T05:36:22.886Z,100065.15
2022-09-09T05:38:58.759Z,100064.38
2022-09-09T05:41:33.088Z,100061.81
2022-09-09T05:44:08.494Z,100065.69
2022-09-09T05:46:46.049Z,100065.91
2022-09-09T05:49:19.766Z,100063.95
2022-09-09T05:51:54.226Z,100064.77
2022-09-09T05:54:27.495Z,100067.06
2022-09-09T05:57:04.647Z,100065.54
2022-09-09T05:59:38.086Z,100063.34
2022-09-09T06:02:13.885Z,100070.61
2022-09-09T06:04:47.013Z,100079.11
2022-09-09T06:07:24.075Z,100078.62
2022-09-09T06:09:57.582Z,100077.70
2022-09-09T06:12:34.426Z,100084.41
2022-09-09T06:15:10.347Z,100083.63
2022-09-09T06:17:44.441Z,100085.44
2022-09-09T06:20:18.867Z,100091.08
2022-09-09T06:22:52.255Z,100094.37
2022-09-09T06:25:26.435Z,100093.06
2022-09-09T06:27:59.651Z,100097.65
2022-09-09T06:30:33.082Z,100095.02
2022-09-09T06:33:07.223Z,100095.50
2022-09-09T06:35:40.620Z,100096.27
2022-09-09T06:38:13.697Z,100090.89
2022-09-09T06:40:53.252Z,100095.05
2022-09-09T06:43:27.256Z,100095.02
2022-09-09T06:46:03.115Z,100102.23
2022-09-09T06:48:36.285Z,100104.31
2022-09-09T06:51:12.874Z,100104.25
2022-09-09T06:53:48.901Z,100110.52
2022-09-09T06:56:29.399Z,100106.16
2022-09-09T06:59:05.251Z,100107.96
2022-09-09T07:01:42.146Z,100113.39
2022-09-09T07:04:17.891Z,100111.25
2022-09-09T07:06:51.523Z,100110.91
2022-09-09T07:09:28.776Z,100113.31
2022-09-09T07:12:02.390Z,100113.81
2022-09-09T07:14:39.358Z,100114.74
2022-09-09T07:17:14.286Z,100116.32
2022-09-09T07:19:49.754Z,100120.24
2022-09-09T07:22:26.396Z,100122.75
2022-09-09T07:25:00.540Z,100127.11
2022-09-09T07:27:36.469Z,100122.73
2022-09-09T07:30:14.946Z,100122.32
2022-09-09T07:32:58.127Z,100125.17
2022-09-09T07:35:32.091Z,100127.11
2022-09-09T07:38:07.877Z,100126.24
2022-09-09T07:40:41.774Z,100124.34
2022-09-09T07:43:17.359Z,100128.24
2022-09-09T07:45:59.506Z,100128.67
2022-09-09T07:48:33.225Z,100130.30
2022-09-09T07:51:14.945Z,100131.65
2022-09-09T07:53:49.537Z,100135.04
2022-09-09T07:56:24.491Z,100147.89
2022-09-09T07:58:59.918Z,100145.95
2022-09-09T08:01:36.885Z,100159.25
2022-09-09T08:04:16.875Z,100162.77
2022-09-09T08:06:54.145Z,100165.09
2022-09-09T08:09:30.640Z,100166.52
2022-09-09T08:12:15.670Z,100169.06
2022-09-09T08:14:55.468Z,100169.05
2022-09-09T08:17:32.849Z,100172.66
2022-09-09T08:20:12.466Z,100177.61
2022-09-09T08:22:46.694Z,100174.71
2022-09-09T08:25:21.405Z,100173.55
2022-09-09T08:27:57.433Z,100174.10
2022-09-09T08:30:31.483Z,100175.33
2022-09-09T08:33:06.689Z,100177.14
2022-09-09T08:35:40.737Z,100168.42
2022-09-09T08:38:15.685Z,100173.53
2022-09-09T08:40:52.460Z,100179.38
2022-09-09T08:43:30.747Z,100183.91
2022-09-09T08:46:13.385Z,100187.03
2022-09-09T08:48:56.898Z,100184.80
2022-09-09T08:51:35.948Z,100185.69
2022-09-09T08:54:11.380Z,100186.84
2022-09-09T08:56:45.848Z,100189.47
2022-09-09T08:59:21.712Z,100190.45
2022-09-09T09:02:16.504Z,100183.35
2022-09-09T09:05:08.516Z,100181.17
2022-09-09T09:07:57.867Z,100184.13
2022-09-09T09:10:48.186Z,100188.80
2022-09-09T09:13:44.045Z,100189.48
2022-09-09T09:16:29.658Z,100194.15
2022-09-09T09:19:07.463Z,100203.09
2022-09-09T09:21:45.080Z,100206.41
2022-09-09T09:24:23.070Z,100210.16
2022-09-09T09:26:56.980Z,100212.02
2022-09-09T09:29:31.715Z,100210.79
2022-09-09T09:32:09.134Z,100213.16
2022-09-09T09:34:42.559Z,100212.95
2022-09-09T09:37:26.131Z,100213.88
2022-09-09T09:40:10.580Z,100211.91
2022-09-09T09:42:54.555Z,100209.32
2022-09-09T09:46:06.869Z,100208.52
2022-09-09T09:48:41.713Z,100211.39
2022-09-09T09:51:20.077Z,100211.99
2022-09-09T09:53:57.198Z,100212.75
2022-09-09T09:56:33.747Z,100211.88
2022-09-09T09:59:17.817Z,100215.71
2022-09-09T10:02:16.309Z,100205.64
2022-09-09T10:04:50.613Z,100213.72
2022-09-09T10:07:26.556Z,100217.30
2022-09-09T10:10:01.958Z,100222.67
2022-09-09T10:12:51.702Z,100220.77
2022-09-09T10:15:38.102Z,100223.86
2022-09-09T10:18:25.397Z,100225.98
2022-09-09T10:21:09.031Z,100223.70
2022-09-09T10:23:58.812Z,100223.95
2022-09-09T10:26:47.667Z,100229.95
2022-09-09T10:29:32.468Z,100239.98
2022-09-09T10:32:35.969Z,100244.78
2022-09-09T10:35:15.129Z,100247.35
2022-09-09T10:38:18.416Z,100255.29
2022-09-09T10:41:09.809Z,100261.73
2022-09-09T10:44:06.476Z,100270.52
2022-09-09T10:46:56.366Z,100271.52
2022-09-09T10:49:46.335Z,100273.04
2022-09-09T10:52:26.907Z,100274.13
2022-09-09T10:55:25.593Z,100275.41
2022-09-09T10:58:03.235Z,100275.23
2022-09-09T11:00:44.387Z,100281.10
2022-09-09T11:03:31.910Z,100286.16
2022-09-09T11:06:22.075Z,100287.23
2022-09-09T11:08:58.416Z,100284.84
2022-09-09T11:11:38.390Z,100286.38
2022-09-09T11:14:19.068Z,100294.09
2022-09-09T11:16:56.625Z,100299.75
2022-09-09T11:19:36.892Z,100293.78
2022-09-09T11:22:18.441Z,100292.13
2022-09-09T11:24:55.964Z,100290.83
2022-09-09T11:27:40.835Z,100289.41
2022-09-09T11:30:56.229Z,100292.93
2022-09-09T11:33:58.948Z,100296.89
2022-09-09T11:36:45.899Z,100296.02
2022-09-09T11:39:47.932Z,100298.52
2022-09-09T11:42:31.842Z,100299.18
2022-09-09T11:45:22.335Z,100300.20
2022-09-09T11:48:00.535Z,100299.56
2022-09-09T11:50:41.567Z,100297.73
2022-09-09T11:53:26.731Z,100300.67
2022-09-09T11:56:28.683Z,100304.25
2022-09-09T11:59:08.976Z,100303.34
2022-09-09T12:01:53.064Z,100300.86
2022-09-09T12:04:59.379Z,100304.20
2022-09-09T12:07:44.106Z,100301.30
2022-09-09T12:10:30.052Z,100300.20
2022-09-09T12:13:20.940Z,100301.59
2022-09-09T12:15:55.616Z,100302.45
2022-09-09T12:18:36.049Z,100309.35
2022-09-09T12:21:20.791Z,100307.94
2022-09-09T12:23:58.376Z,100306.24
2022-09-09T12:26:40.870Z,100307.30
2022-09-09T12:29:37.785Z,100311.52
2022-09-09T12:32:34.891Z,100308.58
2022-09-09T12:35:22.977Z,100306.92
2022-09-09T12:38:01.438Z,100307.15
2022-09-09T12:40:37.588Z,100307.97
2022-09-09T12:43:25.931Z,100302.38
2022-09-09T12:46:02.879Z,100298.91
2022-09-09T12:48:43.947Z,100294.91
2022-09-09T12:51:29.507Z,100294.46
2022-09-09T12:54:06.789Z,100295.67
2022-09-09T12:56:41.067Z,100291.02
2022-09-09T12:59:28.096Z,100295.54
2022-09-09T13:02:02.063Z,100297.16
2022-09-09T13:04:36.573Z,100299.61
2022-09-09T13:07:17.502Z,100296.37
2022-09-09T13:09:53.767Z,100297.80
2022-09-09T13:12:28.699Z,100296.77
2022-09-09T13:15:03.654Z,100290.42
2022-09-09T13:17:37.409Z,100290.09
2022-09-09T13:20:22.457Z,100296.16
2022-09-09T13:22:59.635Z,100287.44
2022-09-09T13:26:00.735Z,100282.62
2022-09-09T13:28:39.032Z,100283.48
2022-09-09T13:31:28.649Z,100289.08
2022-09-09T13:34:02.005Z,100282.92
2022-09-09T13:36:37.549Z,100283.21
2022-09-09T13:39:25.938Z,100284.80
2022-09-09T13:42:00.772Z,100289.49
2022-09-09T13:45:05.779Z,100293.39
2022-09-09T13:47:56.687Z,100288.27
2022-09-09T13:50:34.935Z,100289.11
2022-09-09T13:53:11.705Z,100291.30
2022-09-09T13:55:52.219Z,100294.92
2022-09-09T13:58:31.182Z,100294.15
2022-09-09T14:01:29.345Z,100294.55
2022-09-09T14:04:04.890Z,100296.29
2022-09-09T14:06:44.924Z,100297.04
2022-09-09T14:09:27.117Z,100294.95
2022-09-09T14:12:01.042Z,100300.80
2022-09-09T14:14:46.614Z,100302.64
2022-09-09T14:17:21.303Z,100302.30
2022-09-09T14:19:58.784Z,100302.80
2022-09-09T14:22:40.517Z,100304.67
2022-09-09T14:25:15.622Z,100308.93
2022-09-09T14:27:54.676Z,100310.66
2022-09-09T14:30:42.702Z,100311.71
2022-09-09T14:33:18.641Z,100312.67
2022-09-09T14:36:00.410Z,100310.76
2022-09-09T14:38:34.916Z,100306.69
2022-09-09T14:41:18.329Z,100306.77
2022-09-09T14:43:59.015Z,100307.64
2022-09-09T14:46:35.181Z,100305.09
2022-09-09T14:49:08.686Z,100305.64
2022-09-09T14:51:42.103Z,100314.04
2022-09-09T14:54:16.144Z,100315.34
2022-09-09T14:56:58.435Z,100311.94
2022-09-09T14:59:31.752Z,100314.88
2022-09-09T15:02:05.731Z,100319.25
2022-09-09T15:04:41.872Z,100313.59
2022-09-09T15:07:15.051Z,100312.64
2022-09-09T15:10:10.534Z,100309.14
2022-09-09T15:12:44.204Z,100305.08
2022-09-09T15:15:17.739Z,100302.90
2022-09-09T15:17:50.956Z,100303.46
2022-09-09T15:20:24.241Z,100306.76
2022-09-09T15:22:57.691Z,100310.09
2022-09-09T15:25:31.028Z,100310.15
2022-09-09T15:28:04.402Z,100314.17
2022-09-09T15:30:38.017Z,100317.75
2022-09-09T15:33:13.481Z,100319.20
2022-09-09T15:35:47.379Z,100318.14
2022-09-09T15:38:20.910Z,100322.76
2022-09-09T15:40:59.869Z,100318.66
2022-09-09T15:43:33.077Z,100316.94
2022-09-09T15:46:25.693Z,100318.77
2022-09-09T15:49:01.435Z,100318.66
2022-09-09T15:51:48.042Z,100316.61
2022-09-09T15:54:25.276Z,100315.48
2022-09-09T15:57:01.155Z,100317.95
2022-09-09T15:59:38.096Z,100319.32
2022-09-09T16:02:12.140Z,100308.38
2022-09-09T16:04:54.986Z,100303.88
2022-09-09T16:07:28.336Z,100305.17
2022-09-09T16:10:02.018Z,100311.56
2022-09-09T16:12:36.010Z,100316.79
2022-09-09T16:15:11.621Z,100317.43
2022-09-09T16:17:46.105Z,100313.22
2022-09-09T16:20:20.381Z,100311.73
2022-09-09T16:22:53.485Z,100308.75
2022-09-09T16:25:27.008Z,100310.15
2022-09-09T16:28:03.204Z,100309.40
2022-09-09T16:30:39.677Z,100307.55
2022-09-09T16:33:15.938Z,100305.36
2022-09-09T16:35:50.491Z,100303.23
2022-09-09T16:38:23.753Z,100308.14
2022-09-09T16:41:03.328Z,100306.69
2022-09-09T16:43:37.808Z,100304.02
2022-09-09T16:46:18.262Z,100306.43
2022-09-09T16:48:51.817Z,100299.91
2022-09-09T16:51:27.103Z,100304.34
2022-09-09T16:54:03.218Z,100310.32
2022-09-09T16:56:38.235Z,100308.09
2022-09-09T16:59:14.572Z,100307.02
2022-09-09T17:01:49.393Z,100307.16
2022-09-09T17:04:25.453Z,100307.80
2022-09-09T17:07:01.651Z,100307.75
2022-09-09T17:09:35.237Z,100309.25
2022-09-09T17:12:13.347Z,100313.48
2022-09-09T17:14:46.869Z,100321.33
2022-09-09T17:17:40.365Z,100327.94
2022-09-09T17:20:18.289Z,100331.13
2022-09-09T17:22:54.602Z,100329.70
2022-09-09T17:25:27.854Z,100326.38
2022-09-09T17:28:02.878Z,100333.11
2022-09-09T17:30:39.438Z,100337.04
2022-09-09T17:33:12.582Z,100337.14
2022-09-09T17:35:49.569Z,100338.02
2022-09-09T17:38:28.059Z,100338.98
2022-09-09T17:41:11.925Z,100335.86
2022-09-09T17:43:45.843Z,100337.35
2022-09-09T17:46:22.768Z,100338.05
2022-09-09T17:48:59.260Z,100346.67
2022-09-09T17:51:35.141Z,100348.15
2022-09-09T17:54:10.384Z,100345.07
2022-09-09T17:56:45.300Z,100347.81
2022-09-09T17:59:19.875Z,100346.80
2022-09-09T18:02:14.927Z,100354.14
2022-09-09T18:04:48.611Z,100354.75
2022-09-09T18:07:22.287Z,100361.84
2022-09-09T18:10:05.959Z,100368.48
2022-09-09T18:12:39.258Z,100371.09
2022-09-09T18:15:20.962Z,100371.92
2022-09-09T18:18:07.348Z,100374.58
2022-09-09T18:21:06.863Z,100374.06
2022-09-09T18:23:42.699Z,100375.60
2022-09-09T18:26:17.981Z,100375.73
2022-09-09T18:28:54.152Z,100376.56
2022-09-09T18:31:29.323Z,100373.14
2022-09-09T18:34:04.402Z,100378.21
2022-09-09T18:36:40.457Z,100380.52
2022-09-09T18:39:15.866Z,100386.06
2022-09-09T18:41:52.363Z,100382.73
2022-09-09T18:44:30.753Z,100379.98
2022-09-09T18:47:05.271Z,100385.24
2022-09-09T18:49:38.992Z,100390.73
2022-09-09T18:52:13.105Z,100389.20
2022-09-09T18:54:46.701Z,100386.95
2022-09-09T18:57:21.115Z,100386.46
2022-09-09T18:59:55.757Z,100379.62
2022-09-09T19:02:31.518Z,100380.51
2022-09-09T19:05:08.465Z,100380.06
2022-09-09T19:07:42.256Z,100382.45
2022-09-09T19:10:18.779Z,100378.95
2022-09-09T19:12:52.704Z,100381.64
2022-09-09T19:15:26.203Z,100386.95
2022-09-09T19:18:03.981Z,100386.44
2022-09-09T19:20:42.496Z,100389.28
2022-09-09T19:23:36.184Z,100392.81
2022-09-09T19:26:11.385Z,100391.89
2022-09-09T19:28:56.473Z,100390.25
2022-09-09T19:31:31.104Z,100389.60
2022-09-09T19:34:04.549Z,100387.63
2022-09-09T19:36:38.107Z,100380.84
2022-09-09T19:39:13.136Z,100379.02
2022-09-09T19:41:47.431Z,100374.08
2022-09-09T19:44:22.282Z,100379.83
2022-09-09T19:46:59.983Z,100376.26
2022-09-09T19:49:33.548Z,100377.73
2022-09-09T19:52:07.131Z,100377.39
2022-09-09T19:54:40.383Z,100373.11
2022-09-09T19:57:13.972Z,100370.80
2022-09-09T19:59:47.584Z,100373.45
2022-09-09T20:02:58.079Z,100376.52
2022-09-09T20:05:38.392Z,100378.23
2022-09-09T20:08:11.574Z,100383.17
2022-09-09T20:10:54.684Z,100382.35
2022-09-09T20:13:27.784Z,100381.79
2022-09-09T20:16:04.220Z,100381.41
2022-09-09T20:18:48.135Z,100385.27
2022-09-09T20:21:26.363Z,100385.39
2022-09-09T20:24:03.881Z,100381.86
2022-09-09T20:26:48.468Z,100383.88
2022-09-09T20:29:26.488Z,100383.38
2022-09-09T20:31:59.571Z,100381.13
2022-09-09T20:34:32.975Z,100378.98
2022-09-09T20:37:06.482Z,100380.80
2022-09-09T20:39:40.334Z,100378.61
2022-09-09T20:42:13.522Z,100385.58
2022-09-09T20:44:47.379Z,100389.58
2022-09-09T20:47:20.597Z,100386.02
2022-09-09T20:49:53.825Z,100384.30
2022-09-09T20:52:27.635Z,100392.20
2022-09-09T20:55:01.021Z,100389.50
2022-09-09T20:57:37.549Z,100390.59
2022-09-09T21:00:13.671Z,100392.63
2022-09-09T21:02:46.910Z,100388.94
2022-09-09T21:05:24.086Z,100385.77
2022-09-09T21:08:06.905Z,100391.36
2022-09-09T21:10:46.142Z,100397.14
2022-09-09T21:13:19.407Z,100403.17
2022-09-09T21:15:53.915Z,100402.06
2022-09-09T21:18:29.558Z,100398.32
2022-09-09T21:21:03.169Z,100395.80
2022-09-09T21:23:37.126Z,100399.08
2022-09-09T21:26:11.335Z,100399.66
2022-09-09T21:28:44.791Z,100403.08
2022-09-09T21:31:21.754Z,100405.16
2022-09-09T21:33:59.187Z,100401.98
2022-09-09T21:36:34.125Z,100407.63
2022-09-09T21:39:07.613Z,100407.20
2022-09-09T21:41:41.057Z,100401.77
2022-09-09T21:44:14.750Z,100398.21
2022-09-09T21:46:48.325Z,100396.59
2022-09-09T21:49:21.798Z,100394.52
2022-09-09T21:51:55.469Z,100395.50
2022-09-09T21:54:32.010Z,100394.95
2022-09-09T21:57:07.884Z,100396.66
2022-09-09T21:59:42.449Z,100403.02
2022-09-09T22:02:16.978Z,100398.67
2022-09-09T22:04:53.778Z,100393.59
2022-09-09T22:07:26.992Z,100397.96
2022-09-09T22:10:00.565Z,100396.66
2022-09-09T22:12:35.557Z,100398.70
2022-09-09T22:15:10.272Z,100398.31
2022-09-09T22:17:43.439Z,100403.19
2022-09-09T22:20:16.817Z,100399.30
2022-09-09T22:22:49.909Z,100395.40
2022-09-09T22:25:23.484Z,100392.33
2022-09-09T22:27:59.001Z,100394.80
2022-09-09T22:30:32.225Z,100393.65
2022-09-09T22:33:05.548Z,100388.71
2022-09-09T22:35:44.196Z,100390.31
2022-09-09T22:38:18.076Z,100391.08
2022-09-09T22:40:52.297Z,100393.10
2022-09-09T22:43:25.908Z,100389.48
2022-09-09T22:45:59.047Z,100392.25
2022-09-09T22:48:35.633Z,100389.35
2022-09-09T22:51:11.111Z,100389.94
2022-09-09T22:53:49.701Z,100389.36
2022-09-09T22:56:23.117Z,100386.80
2022-09-09T22:59:07.870Z,100385.59
2022-09-09T23:01:41.226Z,100385.48
2022-09-09T23:04:15.178Z,100384.67
2022-09-09T23:06:48.245Z,100382.70
2022-09-09T23:09:21.625Z,100384.02
2022-09-09T23:11:55.029Z,100382.14
2022-09-09T23:14:34.294Z,100380.23
2022-09-09T23:17:07.556Z,100377.12
2022-09-09T23:19:40.684Z,100373.89
2022-09-09T23:22:15.456Z,100368.58
2022-09-09T23:24:49.415Z,100369.95
2022-09-09T23:27:22.916Z,100370.71
2022-09-09T23:29:57.065Z,100370.14
2022-09-09T23:32:40.710Z,100361.77
2022-09-09T23:35:14.262Z,100360.95
2022-09-09T23:37:54.799Z,100359.77
2022-09-09T23:40:27.931Z,100360.10
2022-09-09T23:43:01.100Z,100364.27
2022-09-09T23:45:34.167Z,100360.11
2022-09-09T23:48:08.013Z,100359.28
2022-09-09T23:50:41.376Z,100361.91
2022-09-09T23:53:18.064Z,100360.55
2022-09-09T23:55:55.117Z,100359.00
2022-09-09T23:58:28.381Z,100358.08
